sensor_id;sensor_type;location;lat;lon;timestamp;P1;durP1;ratioP1;P2;durP2;ratioP2
9334;SDS011;4706;41.844;26.082;2023-08-06T00:01:50;9.40;;;7.50;;
9334;SDS011;4706;41.844;26.082;2023-08-06T00:04:15;10.20;;;7.32;;
9334;SDS011;4706;41.844;26.082;2023-08-06T00:06:41;9.43;;;7.38;;
9334;SDS011;4706;41.844;26.082;2023-08-06T00:09:07;9.68;;;8.07;;
9334;SDS011;4706;41.844;26.082;2023-08-06T00:11:33;8.18;;;7.40;;
9334;SDS011;4706;41.844;26.082;2023-08-06T00:13:58;11.70;;;7.93;;
9334;SDS011;4706;41.844;26.082;2023-08-06T00:16:24;8.52;;;7.70;;
9334;SDS011;4706;41.844;26.082;2023-08-06T00:18:49;8.68;;;7.22;;
9334;SDS011;4706;41.844;26.082;2023-08-06T00:21:15;8.55;;;7.75;;
9334;SDS011;4706;41.844;26.082;2023-08-06T00:23:41;12.85;;;7.97;;
9334;SDS011;4706;41.844;26.082;2023-08-06T00:26:06;9.35;;;8.10;;
9334;SDS011;4706;41.844;26.082;2023-08-06T00:28:32;10.38;;;8.10;;
9334;SDS011;4706;41.844;26.082;2023-08-06T00:30:57;10.10;;;8.35;;
9334;SDS011;4706;41.844;26.082;2023-08-06T00:33:23;9.93;;;7.88;;
9334;SDS011;4706;41.844;26.082;2023-08-06T00:35:49;10.27;;;8.10;;
9334;SDS011;4706;41.844;26.082;2023-08-06T00:38:15;10.32;;;8.18;;
9334;SDS011;4706;41.844;26.082;2023-08-06T00:40:41;12.63;;;7.95;;
9334;SDS011;4706;41.844;26.082;2023-08-06T00:43:06;11.25;;;8.45;;
9334;SDS011;4706;41.844;26.082;2023-08-06T00:45:33;9.63;;;8.10;;
9334;SDS011;4706;41.844;26.082;2023-08-06T00:48:00;11.23;;;8.30;;
9334;SDS011;4706;41.844;26.082;2023-08-06T00:50:27;11.90;;;8.63;;
9334;SDS011;4706;41.844;26.082;2023-08-06T00:52:53;8.73;;;8.02;;
9334;SDS011;4706;41.844;26.082;2023-08-06T00:55:19;10.98;;;8.70;;
9334;SDS011;4706;41.844;26.082;2023-08-06T00:57:45;11.00;;;8.75;;
9334;SDS011;4706;41.844;26.082;2023-08-06T01:00:11;12.63;;;9.25;;
9334;SDS011;4706;41.844;26.082;2023-08-06T01:02:37;11.30;;;8.93;;
9334;SDS011;4706;41.844;26.082;2023-08-06T01:05:03;10.60;;;8.85;;
9334;SDS011;4706;41.844;26.082;2023-08-06T01:10:33;9.57;;;8.43;;
9334;SDS011;4706;41.844;26.082;2023-08-06T01:15:58;10.90;;;8.65;;
9334;SDS011;4706;41.844;26.082;2023-08-06T01:18:25;9.93;;;8.63;;
9334;SDS011;4706;41.844;26.082;2023-08-06T01:20:51;9.50;;;8.60;;
9334;SDS011;4706;41.844;26.082;2023-08-06T01:23:17;10.73;;;8.57;;
9334;SDS011;4706;41.844;26.082;2023-08-06T01:25:46;11.55;;;8.82;;
9334;SDS011;4706;41.844;26.082;2023-08-06T01:28:22;9.43;;;8.63;;
9334;SDS011;4706;41.844;26.082;2023-08-06T01:30:52;13.48;;;8.60;;
9334;SDS011;4706;41.844;26.082;2023-08-06T01:33:24;10.93;;;9.13;;
9334;SDS011;4706;41.844;26.082;2023-08-06T01:35:52;10.93;;;9.27;;
9334;SDS011;4706;41.844;26.082;2023-08-06T01:38:20;12.55;;;9.25;;
9334;SDS011;4706;41.844;26.082;2023-08-06T01:40:46;11.52;;;9.25;;
9334;SDS011;4706;41.844;26.082;2023-08-06T01:43:12;10.82;;;8.93;;
9334;SDS011;4706;41.844;26.082;2023-08-06T01:45:37;11.23;;;9.20;;
9334;SDS011;4706;41.844;26.082;2023-08-06T01:48:03;12.45;;;9.02;;
9334;SDS011;4706;41.844;26.082;2023-08-06T01:50:28;13.15;;;8.95;;
9334;SDS011;4706;41.844;26.082;2023-08-06T01:52:54;10.68;;;9.57;;
9334;SDS011;4706;41.844;26.082;2023-08-06T01:55:19;11.32;;;8.88;;
9334;SDS011;4706;41.844;26.082;2023-08-06T01:57:45;9.43;;;8.57;;
9334;SDS011;4706;41.844;26.082;2023-08-06T02:00:11;10.63;;;8.70;;
9334;SDS011;4706;41.844;26.082;2023-08-06T02:02:37;9.25;;;8.40;;
9334;SDS011;4706;41.844;26.082;2023-08-06T02:05:02;9.55;;;8.65;;
9334;SDS011;4706;41.844;26.082;2023-08-06T02:07:28;9.82;;;8.80;;
9334;SDS011;4706;41.844;26.082;2023-08-06T02:09:53;12.18;;;8.95;;
9334;SDS011;4706;41.844;26.082;2023-08-06T02:12:19;10.32;;;8.63;;
9334;SDS011;4706;41.844;26.082;2023-08-06T02:14:44;9.82;;;8.80;;
9334;SDS011;4706;41.844;26.082;2023-08-06T02:17:09;10.13;;;9.23;;
9334;SDS011;4706;41.844;26.082;2023-08-06T02:19:35;9.63;;;8.65;;
9334;SDS011;4706;41.844;26.082;2023-08-06T02:22:00;8.85;;;8.02;;
9334;SDS011;4706;41.844;26.082;2023-08-06T02:24:27;10.25;;;9.25;;
9334;SDS011;4706;41.844;26.082;2023-08-06T02:26:52;9.18;;;8.30;;
9334;SDS011;4706;41.844;26.082;2023-08-06T02:29:20;10.60;;;9.13;;
9334;SDS011;4706;41.844;26.082;2023-08-06T02:31:46;9.43;;;8.63;;
9334;SDS011;4706;41.844;26.082;2023-08-06T02:34:11;11.50;;;9.00;;
9334;SDS011;4706;41.844;26.082;2023-08-06T02:36:37;12.93;;;8.70;;
9334;SDS011;4706;41.844;26.082;2023-08-06T02:39:02;9.82;;;8.88;;
9334;SDS011;4706;41.844;26.082;2023-08-06T02:41:28;11.80;;;9.07;;
9334;SDS011;4706;41.844;26.082;2023-08-06T02:43:53;12.73;;;9.48;;
9334;SDS011;4706;41.844;26.082;2023-08-06T02:46:19;9.55;;;8.63;;
9334;SDS011;4706;41.844;26.082;2023-08-06T02:48:44;10.10;;;8.93;;
9334;SDS011;4706;41.844;26.082;2023-08-06T02:51:10;10.70;;;9.25;;
9334;SDS011;4706;41.844;26.082;2023-08-06T02:53:35;12.10;;;9.27;;
9334;SDS011;4706;41.844;26.082;2023-08-06T02:56:01;12.90;;;9.18;;
9334;SDS011;4706;41.844;26.082;2023-08-06T02:58:26;11.30;;;9.45;;
9334;SDS011;4706;41.844;26.082;2023-08-06T03:00:58;14.13;;;9.57;;
9334;SDS011;4706;41.844;26.082;2023-08-06T03:03:24;11.38;;;9.13;;
9334;SDS011;4706;41.844;26.082;2023-08-06T03:05:53;12.00;;;9.38;;
9334;SDS011;4706;41.844;26.082;2023-08-06T03:08:19;11.80;;;9.65;;
9334;SDS011;4706;41.844;26.082;2023-08-06T03:10:47;13.98;;;9.77;;
9334;SDS011;4706;41.844;26.082;2023-08-06T03:13:14;11.80;;;9.57;;
9334;SDS011;4706;41.844;26.082;2023-08-06T03:15:39;13.23;;;10.45;;
9334;SDS011;4706;41.844;26.082;2023-08-06T03:18:05;11.50;;;10.40;;
9334;SDS011;4706;41.844;26.082;2023-08-06T03:20:31;10.98;;;9.90;;
9334;SDS011;4706;41.844;26.082;2023-08-06T03:22:57;11.30;;;10.13;;
9334;SDS011;4706;41.844;26.082;2023-08-06T03:25:23;12.90;;;10.60;;
9334;SDS011;4706;41.844;26.082;2023-08-06T03:27:48;13.25;;;10.95;;
9334;SDS011;4706;41.844;26.082;2023-08-06T03:30:14;11.93;;;10.73;;
9334;SDS011;4706;41.844;26.082;2023-08-06T03:32:39;12.38;;;11.07;;
9334;SDS011;4706;41.844;26.082;2023-08-06T03:35:05;12.45;;;11.20;;
9334;SDS011;4706;41.844;26.082;2023-08-06T03:37:31;13.98;;;10.40;;
9334;SDS011;4706;41.844;26.082;2023-08-06T03:39:56;11.82;;;10.57;;
9334;SDS011;4706;41.844;26.082;2023-08-06T03:42:22;11.43;;;10.23;;
9334;SDS011;4706;41.844;26.082;2023-08-06T03:44:47;12.30;;;10.15;;
9334;SDS011;4706;41.844;26.082;2023-08-06T03:47:13;12.98;;;11.43;;
9334;SDS011;4706;41.844;26.082;2023-08-06T03:49:39;13.50;;;12.10;;
9334;SDS011;4706;41.844;26.082;2023-08-06T03:52:05;12.75;;;11.52;;
9334;SDS011;4706;41.844;26.082;2023-08-06T03:54:30;12.73;;;11.52;;
9334;SDS011;4706;41.844;26.082;2023-08-06T03:56:56;14.05;;;12.65;;
9334;SDS011;4706;41.844;26.082;2023-08-06T03:59:21;13.13;;;11.80;;
9334;SDS011;4706;41.844;26.082;2023-08-06T04:01:47;13.68;;;12.23;;
9334;SDS011;4706;41.844;26.082;2023-08-06T04:04:12;14.45;;;12.40;;
9334;SDS011;4706;41.844;26.082;2023-08-06T04:06:38;14.52;;;12.77;;
9334;SDS011;4706;41.844;26.082;2023-08-06T04:09:03;15.13;;;12.35;;
9334;SDS011;4706;41.844;26.082;2023-08-06T04:11:29;13.25;;;11.95;;
9334;SDS011;4706;41.844;26.082;2023-08-06T04:13:54;13.57;;;12.07;;
9334;SDS011;4706;41.844;26.082;2023-08-06T04:16:20;13.65;;;12.18;;
9334;SDS011;4706;41.844;26.082;2023-08-06T04:18:46;13.65;;;12.40;;
9334;SDS011;4706;41.844;26.082;2023-08-06T04:21:12;13.80;;;12.20;;
9334;SDS011;4706;41.844;26.082;2023-08-06T04:23:38;12.98;;;11.65;;
9334;SDS011;4706;41.844;26.082;2023-08-06T04:26:03;13.48;;;12.07;;
9334;SDS011;4706;41.844;26.082;2023-08-06T04:28:29;13.77;;;12.10;;
9334;SDS011;4706;41.844;26.082;2023-08-06T04:30:55;14.20;;;11.48;;
9334;SDS011;4706;41.844;26.082;2023-08-06T04:33:20;12.68;;;11.48;;
9334;SDS011;4706;41.844;26.082;2023-08-06T04:35:46;13.18;;;11.82;;
9334;SDS011;4706;41.844;26.082;2023-08-06T04:38:11;14.43;;;11.57;;
9334;SDS011;4706;41.844;26.082;2023-08-06T04:40:37;12.93;;;11.73;;
9334;SDS011;4706;41.844;26.082;2023-08-06T04:43:02;12.80;;;11.50;;
9334;SDS011;4706;41.844;26.082;2023-08-06T04:45:28;12.20;;;11.00;;
9334;SDS011;4706;41.844;26.082;2023-08-06T04:47:54;13.15;;;11.57;;
9334;SDS011;4706;41.844;26.082;2023-08-06T04:50:19;12.57;;;11.27;;
9334;SDS011;4706;41.844;26.082;2023-08-06T04:52:45;13.32;;;12.02;;
9334;SDS011;4706;41.844;26.082;2023-08-06T04:55:11;13.07;;;11.77;;
9334;SDS011;4706;41.844;26.082;2023-08-06T04:57:36;13.48;;;12.07;;
9334;SDS011;4706;41.844;26.082;2023-08-06T05:00:02;17.95;;;14.35;;
9334;SDS011;4706;41.844;26.082;2023-08-06T05:02:29;15.13;;;13.55;;
9334;SDS011;4706;41.844;26.082;2023-08-06T05:04:57;23.08;;;16.55;;
9334;SDS011;4706;41.844;26.082;2023-08-06T05:07:23;18.77;;;16.77;;
9334;SDS011;4706;41.844;26.082;2023-08-06T05:09:48;21.83;;;19.67;;
9334;SDS011;4706;41.844;26.082;2023-08-06T05:12:14;22.65;;;20.08;;
9334;SDS011;4706;41.844;26.082;2023-08-06T05:14:39;21.33;;;19.23;;
9334;SDS011;4706;41.844;26.082;2023-08-06T05:17:05;21.98;;;19.67;;
9334;SDS011;4706;41.844;26.082;2023-08-06T05:19:30;22.45;;;20.33;;
9334;SDS011;4706;41.844;26.082;2023-08-06T05:21:56;21.42;;;19.33;;
9334;SDS011;4706;41.844;26.082;2023-08-06T05:24:22;23.02;;;20.83;;
9334;SDS011;4706;41.844;26.082;2023-08-06T05:26:47;23.08;;;20.65;;
9334;SDS011;4706;41.844;26.082;2023-08-06T05:29:13;24.70;;;22.48;;
9334;SDS011;4706;41.844;26.082;2023-08-06T05:31:38;26.88;;;24.17;;
9334;SDS011;4706;41.844;26.082;2023-08-06T05:34:04;25.85;;;23.13;;
9334;SDS011;4706;41.844;26.082;2023-08-06T05:36:29;23.02;;;20.55;;
9334;SDS011;4706;41.844;26.082;2023-08-06T05:38:55;24.35;;;21.67;;
9334;SDS011;4706;41.844;26.082;2023-08-06T05:41:20;25.27;;;22.77;;
9334;SDS011;4706;41.844;26.082;2023-08-06T05:43:46;24.63;;;22.15;;
9334;SDS011;4706;41.844;26.082;2023-08-06T05:46:11;27.05;;;24.17;;
9334;SDS011;4706;41.844;26.082;2023-08-06T05:48:37;25.30;;;22.70;;
9334;SDS011;4706;41.844;26.082;2023-08-06T05:51:02;25.33;;;22.73;;
9334;SDS011;4706;41.844;26.082;2023-08-06T05:53:27;25.90;;;23.13;;
9334;SDS011;4706;41.844;26.082;2023-08-06T05:55:53;24.63;;;22.17;;
9334;SDS011;4706;41.844;26.082;2023-08-06T05:58:19;25.65;;;23.27;;
9334;SDS011;4706;41.844;26.082;2023-08-06T06:00:45;25.83;;;23.35;;
9334;SDS011;4706;41.844;26.082;2023-08-06T06:03:11;25.92;;;23.33;;
9334;SDS011;4706;41.844;26.082;2023-08-06T06:05:39;23.73;;;21.50;;
9334;SDS011;4706;41.844;26.082;2023-08-06T06:08:04;23.30;;;20.95;;
9334;SDS011;4706;41.844;26.082;2023-08-06T06:10:30;23.40;;;21.10;;
9334;SDS011;4706;41.844;26.082;2023-08-06T06:12:56;23.40;;;21.33;;
9334;SDS011;4706;41.844;26.082;2023-08-06T06:15:21;23.85;;;21.45;;
9334;SDS011;4706;41.844;26.082;2023-08-06T06:17:47;24.35;;;21.98;;
9334;SDS011;4706;41.844;26.082;2023-08-06T06:20:12;24.20;;;21.73;;
9334;SDS011;4706;41.844;26.082;2023-08-06T06:22:38;22.80;;;20.33;;
9334;SDS011;4706;41.844;26.082;2023-08-06T06:25:04;21.80;;;19.70;;
9334;SDS011;4706;41.844;26.082;2023-08-06T06:27:29;22.52;;;20.40;;
9334;SDS011;4706;41.844;26.082;2023-08-06T06:29:55;22.35;;;20.35;;
9334;SDS011;4706;41.844;26.082;2023-08-06T06:32:21;20.90;;;19.20;;
9334;SDS011;4706;41.844;26.082;2023-08-06T06:34:47;21.92;;;19.98;;
9334;SDS011;4706;41.844;26.082;2023-08-06T06:37:12;21.65;;;19.60;;
9334;SDS011;4706;41.844;26.082;2023-08-06T06:39:38;20.30;;;18.60;;
9334;SDS011;4706;41.844;26.082;2023-08-06T06:42:04;20.75;;;18.60;;
9334;SDS011;4706;41.844;26.082;2023-08-06T06:44:29;20.00;;;17.98;;
9334;SDS011;4706;41.844;26.082;2023-08-06T06:46:55;18.98;;;17.27;;
9334;SDS011;4706;41.844;26.082;2023-08-06T06:49:20;19.13;;;17.33;;
9334;SDS011;4706;41.844;26.082;2023-08-06T06:51:46;18.58;;;16.77;;
9334;SDS011;4706;41.844;26.082;2023-08-06T06:54:11;17.23;;;15.25;;
9334;SDS011;4706;41.844;26.082;2023-08-06T06:56:37;16.65;;;15.07;;
9334;SDS011;4706;41.844;26.082;2023-08-06T06:59:02;16.30;;;14.80;;
9334;SDS011;4706;41.844;26.082;2023-08-06T07:01:28;16.00;;;14.60;;
9334;SDS011;4706;41.844;26.082;2023-08-06T07:03:53;16.92;;;15.40;;
9334;SDS011;4706;41.844;26.082;2023-08-06T07:06:19;16.35;;;14.85;;
9334;SDS011;4706;41.844;26.082;2023-08-06T07:08:44;17.20;;;15.48;;
9334;SDS011;4706;41.844;26.082;2023-08-06T07:11:10;17.10;;;15.35;;
9334;SDS011;4706;41.844;26.082;2023-08-06T07:13:36;16.95;;;15.27;;
9334;SDS011;4706;41.844;26.082;2023-08-06T07:16:02;15.05;;;13.48;;
9334;SDS011;4706;41.844;26.082;2023-08-06T07:18:27;16.20;;;14.65;;
9334;SDS011;4706;41.844;26.082;2023-08-06T07:20:54;15.63;;;14.13;;
9334;SDS011;4706;41.844;26.082;2023-08-06T07:23:20;15.02;;;13.45;;
9334;SDS011;4706;41.844;26.082;2023-08-06T07:25:47;16.33;;;13.13;;
9334;SDS011;4706;41.844;26.082;2023-08-06T07:28:13;13.50;;;12.20;;
9334;SDS011;4706;41.844;26.082;2023-08-06T07:30:39;14.63;;;13.20;;
9334;SDS011;4706;41.844;26.082;2023-08-06T07:33:05;15.45;;;13.68;;
9334;SDS011;4706;41.844;26.082;2023-08-06T07:35:31;15.75;;;14.10;;
9334;SDS011;4706;41.844;26.082;2023-08-06T07:37:57;13.50;;;12.38;;
9334;SDS011;4706;41.844;26.082;2023-08-06T07:40:23;13.27;;;11.88;;
9334;SDS011;4706;41.844;26.082;2023-08-06T07:42:49;12.70;;;11.70;;
9334;SDS011;4706;41.844;26.082;2023-08-06T07:45:14;12.73;;;11.50;;
9334;SDS011;4706;41.844;26.082;2023-08-06T07:47:40;16.38;;;12.93;;
9334;SDS011;4706;41.844;26.082;2023-08-06T07:50:06;24.27;;;21.98;;
9334;SDS011;4706;41.844;26.082;2023-08-06T07:52:31;60.78;;;20.67;;
9334;SDS011;4706;41.844;26.082;2023-08-06T07:54:57;14.52;;;4.15;;
9334;SDS011;4706;41.844;26.082;2023-08-06T07:57:23;5.10;;;2.95;;
9334;SDS011;4706;41.844;26.082;2023-08-06T07:59:49;8.30;;;4.00;;
9334;SDS011;4706;41.844;26.082;2023-08-06T08:02:14;8.70;;;4.55;;
9334;SDS011;4706;41.844;26.082;2023-08-06T08:04:41;13.35;;;4.30;;
9334;SDS011;4706;41.844;26.082;2023-08-06T08:07:06;11.63;;;4.55;;
9334;SDS011;4706;41.844;26.082;2023-08-06T08:09:32;8.68;;;3.50;;
9334;SDS011;4706;41.844;26.082;2023-08-06T08:12:00;11.93;;;9.65;;
9334;SDS011;4706;41.844;26.082;2023-08-06T08:14:26;10.38;;;7.63;;
9334;SDS011;4706;41.844;26.082;2023-08-06T08:16:51;4.10;;;2.80;;
9334;SDS011;4706;41.844;26.082;2023-08-06T08:19:17;4.72;;;2.30;;
9334;SDS011;4706;41.844;26.082;2023-08-06T08:21:42;3.85;;;2.60;;
9334;SDS011;4706;41.844;26.082;2023-08-06T08:24:08;4.93;;;3.35;;
9334;SDS011;4706;41.844;26.082;2023-08-06T08:26:33;6.18;;;2.67;;
9334;SDS011;4706;41.844;26.082;2023-08-06T08:28:59;3.70;;;2.20;;
9334;SDS011;4706;41.844;26.082;2023-08-06T08:31:24;2.42;;;1.92;;
9334;SDS011;4706;41.844;26.082;2023-08-06T08:33:50;2.58;;;2.10;;
9334;SDS011;4706;41.844;26.082;2023-08-06T08:36:15;12.07;;;10.73;;
9334;SDS011;4706;41.844;26.082;2023-08-06T08:38:41;24.38;;;21.98;;
9334;SDS011;4706;41.844;26.082;2023-08-06T08:41:06;7.55;;;6.63;;
9334;SDS011;4706;41.844;26.082;2023-08-06T08:43:35;36.95;;;26.90;;
9334;SDS011;4706;41.844;26.082;2023-08-06T08:46:01;25.20;;;14.35;;
9334;SDS011;4706;41.844;26.082;2023-08-06T08:48:29;18.98;;;7.95;;
9334;SDS011;4706;41.844;26.082;2023-08-06T08:50:55;12.05;;;6.43;;
9334;SDS011;4706;41.844;26.082;2023-08-06T08:53:21;10.95;;;5.43;;
9334;SDS011;4706;41.844;26.082;2023-08-06T08:55:48;5.20;;;4.00;;
9334;SDS011;4706;41.844;26.082;2023-08-06T08:58:14;8.88;;;4.68;;
9334;SDS011;4706;41.844;26.082;2023-08-06T09:00:41;9.45;;;5.32;;
9334;SDS011;4706;41.844;26.082;2023-08-06T09:03:07;7.50;;;5.50;;
9334;SDS011;4706;41.844;26.082;2023-08-06T09:05:33;9.13;;;5.65;;
9334;SDS011;4706;41.844;26.082;2023-08-06T09:08:03;7.43;;;5.10;;
9334;SDS011;4706;41.844;26.082;2023-08-06T09:10:29;11.85;;;6.00;;
9334;SDS011;4706;41.844;26.082;2023-08-06T09:12:56;9.82;;;5.13;;
9334;SDS011;4706;41.844;26.082;2023-08-06T09:15:25;8.43;;;5.20;;
9334;SDS011;4706;41.844;26.082;2023-08-06T09:17:52;8.15;;;4.88;;
9334;SDS011;4706;41.844;26.082;2023-08-06T09:20:19;5.30;;;3.97;;
9334;SDS011;4706;41.844;26.082;2023-08-06T09:22:44;4.82;;;3.97;;
9334;SDS011;4706;41.844;26.082;2023-08-06T09:25:10;6.32;;;4.30;;
9334;SDS011;4706;41.844;26.082;2023-08-06T09:27:39;6.07;;;4.00;;
9334;SDS011;4706;41.844;26.082;2023-08-06T09:30:05;5.00;;;3.80;;
9334;SDS011;4706;41.844;26.082;2023-08-06T09:32:47;5.45;;;3.67;;
9334;SDS011;4706;41.844;26.082;2023-08-06T09:35:19;4.68;;;3.80;;
9334;SDS011;4706;41.844;26.082;2023-08-06T09:37:44;6.40;;;3.60;;
9334;SDS011;4706;41.844;26.082;2023-08-06T09:40:27;4.45;;;3.30;;
9334;SDS011;4706;41.844;26.082;2023-08-06T09:42:54;4.32;;;3.30;;
9334;SDS011;4706;41.844;26.082;2023-08-06T09:45:20;4.70;;;3.28;;
9334;SDS011;4706;41.844;26.082;2023-08-06T09:47:47;5.60;;;4.22;;
9334;SDS011;4706;41.844;26.082;2023-08-06T09:50:17;3.60;;;2.53;;
9334;SDS011;4706;41.844;26.082;2023-08-06T09:52:44;5.10;;;3.13;;
9334;SDS011;4706;41.844;26.082;2023-08-06T09:55:13;4.65;;;2.72;;
9334;SDS011;4706;41.844;26.082;2023-08-06T09:57:40;32.28;;;29.05;;
9334;SDS011;4706;41.844;26.082;2023-08-06T10:00:07;5.55;;;3.78;;
9334;SDS011;4706;41.844;26.082;2023-08-06T10:02:37;3.65;;;2.85;;
9334;SDS011;4706;41.844;26.082;2023-08-06T10:05:04;7.35;;;3.78;;
9334;SDS011;4706;41.844;26.082;2023-08-06T10:07:30;4.47;;;3.22;;
9334;SDS011;4706;41.844;26.082;2023-08-06T10:09:56;5.93;;;4.80;;
9334;SDS011;4706;41.844;26.082;2023-08-06T10:12:22;4.10;;;3.80;;
9334;SDS011;4706;41.844;26.082;2023-08-06T10:14:50;7.15;;;3.97;;
9334;SDS011;4706;41.844;26.082;2023-08-06T10:17:20;4.25;;;3.50;;
9334;SDS011;4706;41.844;26.082;2023-08-06T10:19:47;3.97;;;3.65;;
9334;SDS011;4706;41.844;26.082;2023-08-06T10:22:14;4.20;;;3.42;;
9334;SDS011;4706;41.844;26.082;2023-08-06T10:24:45;4.47;;;3.58;;
9334;SDS011;4706;41.844;26.082;2023-08-06T10:27:27;5.40;;;4.25;;
9334;SDS011;4706;41.844;26.082;2023-08-06T10:32:55;5.05;;;3.70;;
9334;SDS011;4706;41.844;26.082;2023-08-06T10:38:10;6.30;;;4.05;;
9334;SDS011;4706;41.844;26.082;2023-08-06T10:43:25;6.00;;;4.47;;
9334;SDS011;4706;41.844;26.082;2023-08-06T10:45:55;5.13;;;4.72;;
9334;SDS011;4706;41.844;26.082;2023-08-06T10:48:31;5.97;;;5.47;;
9334;SDS011;4706;41.844;26.082;2023-08-06T10:50:59;6.38;;;5.78;;
9334;SDS011;4706;41.844;26.082;2023-08-06T10:53:25;7.35;;;6.85;;
9334;SDS011;4706;41.844;26.082;2023-08-06T10:55:51;7.38;;;6.88;;
9334;SDS011;4706;41.844;26.082;2023-08-06T10:58:17;7.30;;;6.70;;
9334;SDS011;4706;41.844;26.082;2023-08-06T11:00:42;9.50;;;8.65;;
9334;SDS011;4706;41.844;26.082;2023-08-06T11:03:08;10.35;;;9.52;;
9334;SDS011;4706;41.844;26.082;2023-08-06T11:05:34;10.30;;;9.45;;
9334;SDS011;4706;41.844;26.082;2023-08-06T11:08:01;11.02;;;10.10;;
9334;SDS011;4706;41.844;26.082;2023-08-06T11:10:26;10.45;;;9.52;;
9334;SDS011;4706;41.844;26.082;2023-08-06T11:12:52;10.80;;;10.00;;
9334;SDS011;4706;41.844;26.082;2023-08-06T11:15:19;11.70;;;10.27;;
9334;SDS011;4706;41.844;26.082;2023-08-06T11:17:45;11.23;;;10.43;;
9334;SDS011;4706;41.844;26.082;2023-08-06T11:20:11;11.52;;;10.55;;
9334;SDS011;4706;41.844;26.082;2023-08-06T11:22:37;11.85;;;10.95;;
9334;SDS011;4706;41.844;26.082;2023-08-06T11:25:04;10.88;;;10.13;;
9334;SDS011;4706;41.844;26.082;2023-08-06T11:27:31;16.70;;;15.27;;
9334;SDS011;4706;41.844;26.082;2023-08-06T11:29:57;10.93;;;10.13;;
9334;SDS011;4706;41.844;26.082;2023-08-06T11:32:22;9.80;;;9.05;;
9334;SDS011;4706;41.844;26.082;2023-08-06T11:34:48;10.13;;;9.32;;
9334;SDS011;4706;41.844;26.082;2023-08-06T11:37:14;10.77;;;9.98;;
9334;SDS011;4706;41.844;26.082;2023-08-06T11:39:41;10.48;;;9.63;;
9334;SDS011;4706;41.844;26.082;2023-08-06T11:42:12;10.18;;;9.40;;
9334;SDS011;4706;41.844;26.082;2023-08-06T11:44:38;9.57;;;8.88;;
9334;SDS011;4706;41.844;26.082;2023-08-06T11:47:11;9.30;;;8.50;;
9334;SDS011;4706;41.844;26.082;2023-08-06T11:49:48;10.50;;;9.70;;
9334;SDS011;4706;41.844;26.082;2023-08-06T11:52:23;9.60;;;8.90;;
9334;SDS011;4706;41.844;26.082;2023-08-06T11:55:03;9.48;;;8.77;;
9334;SDS011;4706;41.844;26.082;2023-08-06T11:57:35;9.88;;;9.05;;
9334;SDS011;4706;41.844;26.082;2023-08-06T12:00:09;9.88;;;9.07;;
9334;SDS011;4706;41.844;26.082;2023-08-06T12:02:38;10.45;;;9.65;;
9334;SDS011;4706;41.844;26.082;2023-08-06T12:05:09;9.90;;;9.15;;
9334;SDS011;4706;41.844;26.082;2023-08-06T12:07:42;10.20;;;9.38;;
9334;SDS011;4706;41.844;26.082;2023-08-06T12:10:14;10.00;;;9.10;;
9334;SDS011;4706;41.844;26.082;2023-08-06T12:12:41;7.97;;;7.30;;
9334;SDS011;4706;41.844;26.082;2023-08-06T12:15:07;8.15;;;7.47;;
9334;SDS011;4706;41.844;26.082;2023-08-06T12:17:34;10.25;;;9.55;;
9334;SDS011;4706;41.844;26.082;2023-08-06T12:20:00;12.55;;;11.55;;
9334;SDS011;4706;41.844;26.082;2023-08-06T12:22:26;9.68;;;8.98;;
9334;SDS011;4706;41.844;26.082;2023-08-06T12:24:52;11.65;;;10.85;;
9334;SDS011;4706;41.844;26.082;2023-08-06T12:27:17;17.10;;;15.90;;
9334;SDS011;4706;41.844;26.082;2023-08-06T12:29:44;17.98;;;16.58;;
9334;SDS011;4706;41.844;26.082;2023-08-06T12:32:11;18.60;;;17.00;;
9334;SDS011;4706;41.844;26.082;2023-08-06T12:34:40;18.58;;;17.10;;
9334;SDS011;4706;41.844;26.082;2023-08-06T12:37:06;18.95;;;17.20;;
9334;SDS011;4706;41.844;26.082;2023-08-06T12:39:33;18.15;;;16.75;;
9334;SDS011;4706;41.844;26.082;2023-08-06T12:41:59;17.38;;;16.00;;
9334;SDS011;4706;41.844;26.082;2023-08-06T12:44:26;17.58;;;16.20;;
9334;SDS011;4706;41.844;26.082;2023-08-06T12:46:52;16.50;;;15.10;;
9334;SDS011;4706;41.844;26.082;2023-08-06T12:49:18;15.50;;;14.35;;
9334;SDS011;4706;41.844;26.082;2023-08-06T12:51:46;14.38;;;13.38;;
9334;SDS011;4706;41.844;26.082;2023-08-06T12:54:12;14.55;;;13.40;;
9334;SDS011;4706;41.844;26.082;2023-08-06T12:56:38;13.23;;;11.85;;
9334;SDS011;4706;41.844;26.082;2023-08-06T12:59:03;12.00;;;11.05;;
9334;SDS011;4706;41.844;26.082;2023-08-06T13:01:29;11.73;;;10.93;;
9334;SDS011;4706;41.844;26.082;2023-08-06T13:03:55;10.80;;;9.90;;
9334;SDS011;4706;41.844;26.082;2023-08-06T13:06:20;12.77;;;11.68;;
9334;SDS011;4706;41.844;26.082;2023-08-06T13:08:46;13.02;;;12.05;;
9334;SDS011;4706;41.844;26.082;2023-08-06T13:11:11;13.05;;;12.02;;
9334;SDS011;4706;41.844;26.082;2023-08-06T13:13:37;14.50;;;13.18;;
9334;SDS011;4706;41.844;26.082;2023-08-06T13:16:02;14.70;;;13.50;;
9334;SDS011;4706;41.844;26.082;2023-08-06T13:18:28;14.93;;;13.73;;
9334;SDS011;4706;41.844;26.082;2023-08-06T13:20:54;15.23;;;14.07;;
9334;SDS011;4706;41.844;26.082;2023-08-06T13:23:20;16.77;;;15.50;;
9334;SDS011;4706;41.844;26.082;2023-08-06T13:25:46;15.98;;;14.88;;
9334;SDS011;4706;41.844;26.082;2023-08-06T13:28:11;18.92;;;17.58;;
9334;SDS011;4706;41.844;26.082;2023-08-06T13:30:39;17.45;;;16.25;;
9334;SDS011;4706;41.844;26.082;2023-08-06T13:33:10;16.67;;;15.38;;
9334;SDS011;4706;41.844;26.082;2023-08-06T13:35:36;19.45;;;17.67;;
9334;SDS011;4706;41.844;26.082;2023-08-06T13:38:02;16.65;;;15.27;;
9334;SDS011;4706;41.844;26.082;2023-08-06T13:40:33;16.55;;;15.25;;
9334;SDS011;4706;41.844;26.082;2023-08-06T13:42:59;15.63;;;14.30;;
9334;SDS011;4706;41.844;26.082;2023-08-06T13:45:25;16.20;;;15.00;;
9334;SDS011;4706;41.844;26.082;2023-08-06T13:47:50;15.60;;;14.50;;
9334;SDS011;4706;41.844;26.082;2023-08-06T13:50:16;16.33;;;14.88;;
9334;SDS011;4706;41.844;26.082;2023-08-06T13:52:42;16.58;;;14.90;;
9334;SDS011;4706;41.844;26.082;2023-08-06T13:55:07;16.05;;;14.07;;
9334;SDS011;4706;41.844;26.082;2023-08-06T13:57:34;16.63;;;15.13;;
9334;SDS011;4706;41.844;26.082;2023-08-06T14:00:00;17.50;;;16.10;;
9334;SDS011;4706;41.844;26.082;2023-08-06T14:02:27;15.55;;;14.40;;
9334;SDS011;4706;41.844;26.082;2023-08-06T14:04:52;16.77;;;15.27;;
9334;SDS011;4706;41.844;26.082;2023-08-06T14:07:18;15.80;;;14.52;;
9334;SDS011;4706;41.844;26.082;2023-08-06T14:09:45;14.23;;;12.88;;
9334;SDS011;4706;41.844;26.082;2023-08-06T14:12:12;10.70;;;9.52;;
9334;SDS011;4706;41.844;26.082;2023-08-06T14:14:38;11.38;;;10.35;;
9334;SDS011;4706;41.844;26.082;2023-08-06T14:17:04;10.77;;;9.57;;
9334;SDS011;4706;41.844;26.082;2023-08-06T14:19:29;14.40;;;8.75;;
9334;SDS011;4706;41.844;26.082;2023-08-06T14:21:55;8.82;;;7.95;;
9334;SDS011;4706;41.844;26.082;2023-08-06T14:24:20;10.00;;;9.07;;
9334;SDS011;4706;41.844;26.082;2023-08-06T14:26:47;8.85;;;7.95;;
9334;SDS011;4706;41.844;26.082;2023-08-06T14:29:12;8.43;;;7.75;;
9334;SDS011;4706;41.844;26.082;2023-08-06T14:31:39;7.50;;;6.85;;
9334;SDS011;4706;41.844;26.082;2023-08-06T14:34:05;8.20;;;7.40;;
9334;SDS011;4706;41.844;26.082;2023-08-06T14:36:31;7.85;;;7.25;;
9334;SDS011;4706;41.844;26.082;2023-08-06T14:38:56;9.70;;;8.82;;
9334;SDS011;4706;41.844;26.082;2023-08-06T14:41:22;12.00;;;9.63;;
9334;SDS011;4706;41.844;26.082;2023-08-06T14:43:47;8.82;;;8.02;;
9334;SDS011;4706;41.844;26.082;2023-08-06T14:46:13;9.63;;;8.85;;
9334;SDS011;4706;41.844;26.082;2023-08-06T14:48:38;10.55;;;8.98;;
9334;SDS011;4706;41.844;26.082;2023-08-06T14:51:04;9.07;;;8.35;;
9334;SDS011;4706;41.844;26.082;2023-08-06T14:53:30;10.80;;;9.70;;
9334;SDS011;4706;41.844;26.082;2023-08-06T14:55:55;20.33;;;10.57;;